Mc Connell Air Force Base
KIAB : now visible

Aeroporto :











RITROVATECI SU...

 
LOGIN :

Iscrizione | Disclaimer

   EN    FR    IT 

 









Sommario :    VFR   VFR Marginale   IFR   IFR Intensivo   IFR Molto Intensivo
Visibilità : 
Base nubi : 
>= 8 km
>= 3000ft
5 / 8 km
1000 / 3000 ft
1500m / 5 km
500 / 1000 ft
800 / 1500m
200 / 500 ft
< 800m
< 200 ft
Simboli :   Temporali  Nebbia  Neve Forte  Precipitazioni Forti  Vento > 20 kt






- Altitudine del aeroporto : 1371 ft
- Codice IATA : IAB


KIAB - Mc Connell Air Force Base

ULTIMO METAR :
  • 040256Z AUTO 03010KT 10SM CLR 03/M04 A3018 RMK AO2 SLP235 T00301038 53017 $

METARs OBSOLETI :
  • 040156Z AUTO 03010KT 10SM CLR 04/M04 A3015 RMK AO2 SLP224 T00421038 $
  • 040056Z AUTO 03015KT 10SM CLR 06/M04 A3013 RMK AO2 SLP216 T00551038 $

TAF COR TAF KIAB
Valido dal 04 a 02 ore il 05 a 08 ore UTC


040205Z 0402/0508 VRB06KT 9999 FEW013 QNH3014INS
BECMG 0410/0411 02006KT 9999 BKN013 QNH3020INS
BECMG 0413/0414 05010G15KT 9999 SCT013 QNH3004INS
BECMG 0500/0501 VRB06KT 9999 BKN027 QNH3004INS
BECMG 0501/0502 VRB06KT 9999 FEW019 QNH3004INS TX08/0423Z TN00/0412Z LAST NO AMDS AFT 0402 NEXT 0610



MetMap, La meteo Aeronautica in un colpo d'occhio ! - Copyright ORBIFLY Dicembre 2007 - Disclaimer

ORBIFLY MET'MAP TEAM :

Programmazione e sviluppo : Alexandra Zaïnal
Concezione : Baudouin d'Aumeries
Aiuto per la programmazione : Marc-Olivier Méhu
Supporto tecnico e logistico : Manuel Goepfert
Aiuto per la traduzione : Arnaldo La Scala

Contatto : metmap@orbifly.com




FONTI E CREDITI :

   NOAA       Earth
Advisory